Terminal Aerodrome Forecast
Issued by NWS

Home | Current Version | Previous Version | Text Only | Print | Product List | Glossary On
Versions: 1 2 3 4 5 6 7 8 9 10 11 12 13 14 15 16 17 18
031
FTUS45 KREV 220532
TAFMMH
TAF
KMMH 220532Z 2206/2306 12008KT P6SM VCSH SCT030 BKN060
     FM220900 15008KT 1SM -SN BKN010 OVC020 WS020/24045KT
     FM221500 26014G25KT 1/2SM SN OVC010 WS020/24045KT
     FM222100 26022G35KT 4SM -SN BR OVC020 WS020/24045KT
     FM230300 27034G50KT 1/4SM +SN OVC009=

USA.gov is the U.S. government's official web portal to all federal, state and local government web resources and services.